sensor_id;sensor_type;location;lat;lon;timestamp;P1;durP1;ratioP1;P2;durP2;ratioP2
38053;SDS011;23859;50.672;7.164;2022-12-22T00:02:27;5.38;;;2.00;;
38053;SDS011;23859;50.672;7.164;2022-12-22T00:05:16;2.50;;;2.00;;
38053;SDS011;23859;50.672;7.164;2022-12-22T00:08:02;2.90;;;2.00;;
38053;SDS011;23859;50.672;7.164;2022-12-22T00:10:47;3.63;;;2.15;;
38053;SDS011;23859;50.672;7.164;2022-12-22T00:13:33;1.85;;;1.70;;
38053;SDS011;23859;50.672;7.164;2022-12-22T00:16:18;1.70;;;1.55;;
38053;SDS011;23859;50.672;7.164;2022-12-22T00:19:04;4.40;;;1.90;;
38053;SDS011;23859;50.672;7.164;2022-12-22T00:22:03;2.10;;;1.63;;
38053;SDS011;23859;50.672;7.164;2022-12-22T00:24:59;2.72;;;2.05;;
38053;SDS011;23859;50.672;7.164;2022-12-22T00:27:44;2.25;;;2.00;;
38053;SDS011;23859;50.672;7.164;2022-12-22T00:30:29;3.92;;;2.05;;
38053;SDS011;23859;50.672;7.164;2022-12-22T00:33:13;2.00;;;1.70;;
38053;SDS011;23859;50.672;7.164;2022-12-22T00:36:01;2.53;;;2.13;;
38053;SDS011;23859;50.672;7.164;2022-12-22T00:38:47;2.20;;;1.50;;
38053;SDS011;23859;50.672;7.164;2022-12-22T00:41:32;2.20;;;1.60;;
38053;SDS011;23859;50.672;7.164;2022-12-22T00:44:16;2.53;;;1.58;;
38053;SDS011;23859;50.672;7.164;2022-12-22T00:47:01;3.28;;;1.23;;
38053;SDS011;23859;50.672;7.164;2022-12-22T00:49:46;2.42;;;1.58;;
38053;SDS011;23859;50.672;7.164;2022-12-22T00:52:32;1.58;;;1.48;;
38053;SDS011;23859;50.672;7.164;2022-12-22T00:55:19;3.35;;;1.30;;
38053;SDS011;23859;50.672;7.164;2022-12-22T00:58:11;2.03;;;1.30;;
38053;SDS011;23859;50.672;7.164;2022-12-22T01:00:59;2.42;;;1.48;;
38053;SDS011;23859;50.672;7.164;2022-12-22T01:03:43;3.28;;;1.50;;
38053;SDS011;23859;50.672;7.164;2022-12-22T01:06:29;2.28;;;1.13;;
38053;SDS011;23859;50.672;7.164;2022-12-22T01:09:15;1.75;;;1.13;;
38053;SDS011;23859;50.672;7.164;2022-12-22T01:12:02;1.70;;;1.42;;
38053;SDS011;23859;50.672;7.164;2022-12-22T01:14:52;4.68;;;1.42;;
38053;SDS011;23859;50.672;7.164;2022-12-22T01:17:36;2.95;;;1.75;;
38053;SDS011;23859;50.672;7.164;2022-12-22T01:20:21;3.80;;;1.92;;
38053;SDS011;23859;50.672;7.164;2022-12-22T01:23:08;2.05;;;1.42;;
38053;SDS011;23859;50.672;7.164;2022-12-22T01:25:53;2.88;;;1.63;;
38053;SDS011;23859;50.672;7.164;2022-12-22T01:28:38;3.13;;;1.60;;
38053;SDS011;23859;50.672;7.164;2022-12-22T01:31:28;3.30;;;1.50;;
38053;SDS011;23859;50.672;7.164;2022-12-22T01:34:15;4.93;;;1.75;;
38053;SDS011;23859;50.672;7.164;2022-12-22T01:36:59;2.22;;;1.30;;
38053;SDS011;23859;50.672;7.164;2022-12-22T01:39:44;1.80;;;1.63;;
38053;SDS011;23859;50.672;7.164;2022-12-22T01:42:32;1.75;;;1.60;;
38053;SDS011;23859;50.672;7.164;2022-12-22T01:45:25;1.52;;;1.42;;
38053;SDS011;23859;50.672;7.164;2022-12-22T01:48:15;2.03;;;1.65;;
38053;SDS011;23859;50.672;7.164;2022-12-22T01:51:01;2.60;;;1.95;;
38053;SDS011;23859;50.672;7.164;2022-12-22T01:53:55;2.28;;;1.52;;
38053;SDS011;23859;50.672;7.164;2022-12-22T01:56:41;1.10;;;1.00;;
38053;SDS011;23859;50.672;7.164;2022-12-22T01:59:28;2.85;;;1.15;;
38053;SDS011;23859;50.672;7.164;2022-12-22T02:02:13;2.35;;;1.35;;
38053;SDS011;23859;50.672;7.164;2022-12-22T02:04:59;5.65;;;1.73;;
38053;SDS011;23859;50.672;7.164;2022-12-22T02:07:50;1.75;;;1.30;;
38053;SDS011;23859;50.672;7.164;2022-12-22T02:11:07;1.17;;;0.80;;
38053;SDS011;23859;50.672;7.164;2022-12-22T02:14:27;1.20;;;1.10;;
38053;SDS011;23859;50.672;7.164;2022-12-22T02:17:16;2.03;;;1.25;;
38053;SDS011;23859;50.672;7.164;2022-12-22T02:26:30;1.88;;;1.10;;
38053;SDS011;23859;50.672;7.164;2022-12-22T02:29:20;1.42;;;1.30;;
38053;SDS011;23859;50.672;7.164;2022-12-22T02:32:13;1.77;;;1.30;;
38053;SDS011;23859;50.672;7.164;2022-12-22T02:34:57;5.07;;;1.50;;
38053;SDS011;23859;50.672;7.164;2022-12-22T02:43:41;1.80;;;1.23;;
38053;SDS011;23859;50.672;7.164;2022-12-22T02:46:45;1.55;;;1.30;;
38053;SDS011;23859;50.672;7.164;2022-12-22T02:49:52;3.13;;;1.30;;
38053;SDS011;23859;50.672;7.164;2022-12-22T02:52:40;3.72;;;1.40;;
38053;SDS011;23859;50.672;7.164;2022-12-22T02:55:26;1.55;;;1.00;;
38053;SDS011;23859;50.672;7.164;2022-12-22T02:58:12;3.05;;;2.05;;
38053;SDS011;23859;50.672;7.164;2022-12-22T03:00:57;2.33;;;1.00;;
38053;SDS011;23859;50.672;7.164;2022-12-22T03:03:43;2.03;;;1.13;;
38053;SDS011;23859;50.672;7.164;2022-12-22T03:06:28;4.22;;;1.10;;
38053;SDS011;23859;50.672;7.164;2022-12-22T03:09:12;3.67;;;1.30;;
38053;SDS011;23859;50.672;7.164;2022-12-22T03:11:57;1.08;;;1.00;;
38053;SDS011;23859;50.672;7.164;2022-12-22T03:14:42;4.20;;;1.70;;
38053;SDS011;23859;50.672;7.164;2022-12-22T03:17:26;5.03;;;1.80;;
38053;SDS011;23859;50.672;7.164;2022-12-22T03:20:11;2.33;;;1.60;;
38053;SDS011;23859;50.672;7.164;2022-12-22T03:22:55;2.35;;;1.70;;
38053;SDS011;23859;50.672;7.164;2022-12-22T03:25:46;2.92;;;2.10;;
38053;SDS011;23859;50.672;7.164;2022-12-22T03:28:19;2.45;;;2.25;;
38053;SDS011;23859;50.672;7.164;2022-12-22T03:30:51;2.75;;;2.28;;
38053;SDS011;23859;50.672;7.164;2022-12-22T03:33:28;2.20;;;1.90;;
38053;SDS011;23859;50.672;7.164;2022-12-22T03:35:55;2.50;;;1.90;;
38053;SDS011;23859;50.672;7.164;2022-12-22T03:38:21;2.95;;;1.67;;
38053;SDS011;23859;50.672;7.164;2022-12-22T03:40:47;3.13;;;1.60;;
38053;SDS011;23859;50.672;7.164;2022-12-22T03:43:14;10.10;;;2.83;;
38053;SDS011;23859;50.672;7.164;2022-12-22T03:45:59;4.38;;;1.70;;
38053;SDS011;23859;50.672;7.164;2022-12-22T03:48:44;2.58;;;1.70;;
38053;SDS011;23859;50.672;7.164;2022-12-22T03:51:30;3.35;;;1.92;;
38053;SDS011;23859;50.672;7.164;2022-12-22T03:53:59;2.00;;;1.70;;
38053;SDS011;23859;50.672;7.164;2022-12-22T03:56:25;1.95;;;1.50;;
38053;SDS011;23859;50.672;7.164;2022-12-22T03:58:52;1.73;;;1.58;;
38053;SDS011;23859;50.672;7.164;2022-12-22T04:01:18;2.30;;;2.05;;
38053;SDS011;23859;50.672;7.164;2022-12-22T04:03:44;2.35;;;2.15;;
38053;SDS011;23859;50.672;7.164;2022-12-22T04:06:12;2.53;;;1.90;;
38053;SDS011;23859;50.672;7.164;2022-12-22T04:08:38;2.15;;;1.95;;
38053;SDS011;23859;50.672;7.164;2022-12-22T04:11:04;3.05;;;1.50;;
38053;SDS011;23859;50.672;7.164;2022-12-22T04:13:48;1.83;;;1.70;;
38053;SDS011;23859;50.672;7.164;2022-12-22T04:16:14;1.58;;;1.38;;
38053;SDS011;23859;50.672;7.164;2022-12-22T04:18:40;2.30;;;1.63;;
38053;SDS011;23859;50.672;7.164;2022-12-22T04:21:06;1.27;;;1.10;;
38053;SDS011;23859;50.672;7.164;2022-12-22T04:23:32;3.92;;;1.40;;
38053;SDS011;23859;50.672;7.164;2022-12-22T04:25:59;1.55;;;1.27;;
38053;SDS011;23859;50.672;7.164;2022-12-22T04:28:25;1.50;;;1.20;;
38053;SDS011;23859;50.672;7.164;2022-12-22T04:30:51;2.40;;;1.10;;
38053;SDS011;23859;50.672;7.164;2022-12-22T04:33:17;2.17;;;1.40;;
38053;SDS011;23859;50.672;7.164;2022-12-22T04:35:43;1.30;;;1.20;;
38053;SDS011;23859;50.672;7.164;2022-12-22T04:38:09;1.42;;;1.33;;
38053;SDS011;23859;50.672;7.164;2022-12-22T04:40:35;1.95;;;1.48;;
38053;SDS011;23859;50.672;7.164;2022-12-22T04:43:01;1.45;;;1.30;;
38053;SDS011;23859;50.672;7.164;2022-12-22T04:45:27;2.25;;;1.20;;
38053;SDS011;23859;50.672;7.164;2022-12-22T04:47:53;2.15;;;1.20;;
38053;SDS011;23859;50.672;7.164;2022-12-22T04:50:19;2.55;;;1.17;;
38053;SDS011;23859;50.672;7.164;2022-12-22T04:52:45;1.20;;;1.10;;
38053;SDS011;23859;50.672;7.164;2022-12-22T04:55:11;1.27;;;1.20;;
38053;SDS011;23859;50.672;7.164;2022-12-22T04:57:37;1.60;;;1.00;;
38053;SDS011;23859;50.672;7.164;2022-12-22T05:00:04;1.20;;;1.10;;
38053;SDS011;23859;50.672;7.164;2022-12-22T05:02:30;3.22;;;1.08;;
38053;SDS011;23859;50.672;7.164;2022-12-22T05:04:56;5.10;;;1.95;;
38053;SDS011;23859;50.672;7.164;2022-12-22T05:07:22;1.40;;;1.20;;
38053;SDS011;23859;50.672;7.164;2022-12-22T05:09:48;1.55;;;1.10;;
38053;SDS011;23859;50.672;7.164;2022-12-22T05:12:14;3.25;;;1.50;;
38053;SDS011;23859;50.672;7.164;2022-12-22T05:14:59;1.63;;;1.10;;
38053;SDS011;23859;50.672;7.164;2022-12-22T05:17:25;2.03;;;1.27;;
38053;SDS011;23859;50.672;7.164;2022-12-22T05:19:51;1.98;;;1.20;;
38053;SDS011;23859;50.672;7.164;2022-12-22T05:22:17;1.30;;;1.20;;
38053;SDS011;23859;50.672;7.164;2022-12-22T05:24:43;1.00;;;0.90;;
38053;SDS011;23859;50.672;7.164;2022-12-22T05:27:10;0.90;;;0.90;;
38053;SDS011;23859;50.672;7.164;2022-12-22T05:29:36;0.95;;;0.73;;
38053;SDS011;23859;50.672;7.164;2022-12-22T05:32:02;2.25;;;1.30;;
38053;SDS011;23859;50.672;7.164;2022-12-22T05:34:28;2.03;;;0.90;;
38053;SDS011;23859;50.672;7.164;2022-12-22T05:36:54;2.42;;;0.95;;
38053;SDS011;23859;50.672;7.164;2022-12-22T05:39:20;1.17;;;0.95;;
38053;SDS011;23859;50.672;7.164;2022-12-22T05:41:46;3.20;;;1.30;;
38053;SDS011;23859;50.672;7.164;2022-12-22T05:44:12;1.23;;;1.13;;
38053;SDS011;23859;50.672;7.164;2022-12-22T05:46:39;3.63;;;1.38;;
38053;SDS011;23859;50.672;7.164;2022-12-22T05:49:05;1.80;;;1.50;;
38053;SDS011;23859;50.672;7.164;2022-12-22T05:51:31;1.67;;;1.10;;
38053;SDS011;23859;50.672;7.164;2022-12-22T05:53:57;4.63;;;1.65;;
38053;SDS011;23859;50.672;7.164;2022-12-22T05:56:23;1.75;;;1.17;;
38053;SDS011;23859;50.672;7.164;2022-12-22T05:58:49;2.58;;;0.80;;
38053;SDS011;23859;50.672;7.164;2022-12-22T06:01:15;4.95;;;1.48;;
38053;SDS011;23859;50.672;7.164;2022-12-22T06:03:41;2.42;;;1.65;;
38053;SDS011;23859;50.672;7.164;2022-12-22T06:06:07;4.13;;;1.88;;
38053;SDS011;23859;50.672;7.164;2022-12-22T06:08:33;6.57;;;1.70;;
38053;SDS011;23859;50.672;7.164;2022-12-22T06:10:59;3.88;;;1.20;;
38053;SDS011;23859;50.672;7.164;2022-12-22T06:13:25;3.53;;;1.77;;
38053;SDS011;23859;50.672;7.164;2022-12-22T06:15:51;6.32;;;2.00;;
38053;SDS011;23859;50.672;7.164;2022-12-22T06:18:17;3.20;;;1.40;;
38053;SDS011;23859;50.672;7.164;2022-12-22T06:20:44;12.43;;;3.58;;
38053;SDS011;23859;50.672;7.164;2022-12-22T06:23:11;5.82;;;1.73;;
38053;SDS011;23859;50.672;7.164;2022-12-22T06:25:37;4.35;;;1.25;;
38053;SDS011;23859;50.672;7.164;2022-12-22T06:28:03;4.30;;;1.88;;
38053;SDS011;23859;50.672;7.164;2022-12-22T06:30:29;3.05;;;1.55;;
38053;SDS011;23859;50.672;7.164;2022-12-22T06:32:55;1.13;;;0.98;;
38053;SDS011;23859;50.672;7.164;2022-12-22T06:35:21;1.27;;;0.35;;
38053;SDS011;23859;50.672;7.164;2022-12-22T06:37:47;2.80;;;0.40;;
38053;SDS011;23859;50.672;7.164;2022-12-22T06:40:13;4.25;;;0.80;;
38053;SDS011;23859;50.672;7.164;2022-12-22T06:42:39;0.30;;;0.30;;
38053;SDS011;23859;50.672;7.164;2022-12-22T06:45:24;0.47;;;0.25;;
38053;SDS011;23859;50.672;7.164;2022-12-22T06:47:50;1.13;;;0.30;;
38053;SDS011;23859;50.672;7.164;2022-12-22T06:50:16;2.00;;;0.22;;
38053;SDS011;23859;50.672;7.164;2022-12-22T06:52:42;1.08;;;0.47;;
38053;SDS011;23859;50.672;7.164;2022-12-22T06:55:08;1.20;;;0.30;;
38053;SDS011;23859;50.672;7.164;2022-12-22T06:57:34;1.02;;;0.38;;
38053;SDS011;23859;50.672;7.164;2022-12-22T07:00:01;0.70;;;0.30;;
38053;SDS011;23859;50.672;7.164;2022-12-22T07:02:28;0.63;;;0.28;;
38053;SDS011;23859;50.672;7.164;2022-12-22T07:04:54;2.50;;;0.60;;
38053;SDS011;23859;50.672;7.164;2022-12-22T07:07:20;0.68;;;0.30;;
38053;SDS011;23859;50.672;7.164;2022-12-22T07:09:46;1.02;;;0.45;;
38053;SDS011;23859;50.672;7.164;2022-12-22T07:12:12;1.23;;;0.22;;
38053;SDS011;23859;50.672;7.164;2022-12-22T07:14:38;0.55;;;0.52;;
38053;SDS011;23859;50.672;7.164;2022-12-22T07:17:04;0.20;;;0.20;;
38053;SDS011;23859;50.672;7.164;2022-12-22T07:19:30;1.80;;;0.40;;
38053;SDS011;23859;50.672;7.164;2022-12-22T07:21:56;2.15;;;0.50;;
38053;SDS011;23859;50.672;7.164;2022-12-22T07:24:22;0.40;;;0.40;;
38053;SDS011;23859;50.672;7.164;2022-12-22T07:26:49;2.15;;;0.40;;
38053;SDS011;23859;50.672;7.164;2022-12-22T07:29:16;2.15;;;1.00;;
38053;SDS011;23859;50.672;7.164;2022-12-22T07:31:42;1.48;;;1.20;;
38053;SDS011;23859;50.672;7.164;2022-12-22T07:34:08;4.15;;;0.70;;
38053;SDS011;23859;50.672;7.164;2022-12-22T07:36:35;3.25;;;0.63;;
38053;SDS011;23859;50.672;7.164;2022-12-22T07:39:01;2.78;;;0.80;;
38053;SDS011;23859;50.672;7.164;2022-12-22T07:41:27;1.23;;;0.75;;
38053;SDS011;23859;50.672;7.164;2022-12-22T07:44:11;1.85;;;1.33;;
38053;SDS011;23859;50.672;7.164;2022-12-22T07:46:38;1.30;;;0.90;;
38053;SDS011;23859;50.672;7.164;2022-12-22T07:49:04;1.23;;;0.80;;
38053;SDS011;23859;50.672;7.164;2022-12-22T07:51:50;1.75;;;0.82;;
38053;SDS011;23859;50.672;7.164;2022-12-22T07:54:16;0.73;;;0.73;;
38053;SDS011;23859;50.672;7.164;2022-12-22T07:56:43;1.23;;;0.80;;
38053;SDS011;23859;50.672;7.164;2022-12-22T07:59:10;5.30;;;0.80;;
38053;SDS011;23859;50.672;7.164;2022-12-22T08:01:36;2.08;;;0.70;;
38053;SDS011;23859;50.672;7.164;2022-12-22T08:04:04;2.03;;;0.90;;
38053;SDS011;23859;50.672;7.164;2022-12-22T08:06:32;1.85;;;1.30;;
38053;SDS011;23859;50.672;7.164;2022-12-22T08:08:59;2.60;;;1.10;;
38053;SDS011;23859;50.672;7.164;2022-12-22T08:11:25;6.57;;;1.30;;
38053;SDS011;23859;50.672;7.164;2022-12-22T08:13:51;3.58;;;1.48;;
38053;SDS011;23859;50.672;7.164;2022-12-22T08:16:17;7.07;;;1.33;;
38053;SDS011;23859;50.672;7.164;2022-12-22T08:18:45;2.53;;;1.30;;
38053;SDS011;23859;50.672;7.164;2022-12-22T08:21:12;3.35;;;1.40;;
38053;SDS011;23859;50.672;7.164;2022-12-22T08:23:39;4.20;;;1.55;;
38053;SDS011;23859;50.672;7.164;2022-12-22T08:26:09;3.30;;;1.50;;
38053;SDS011;23859;50.672;7.164;2022-12-22T08:29:01;2.20;;;1.50;;
38053;SDS011;23859;50.672;7.164;2022-12-22T08:31:42;2.72;;;1.70;;
38053;SDS011;23859;50.672;7.164;2022-12-22T08:34:09;1.73;;;1.42;;
38053;SDS011;23859;50.672;7.164;2022-12-22T08:36:40;3.50;;;1.50;;
38053;SDS011;23859;50.672;7.164;2022-12-22T08:39:10;2.47;;;1.83;;
38053;SDS011;23859;50.672;7.164;2022-12-22T08:41:38;1.88;;;1.63;;
38053;SDS011;23859;50.672;7.164;2022-12-22T08:44:17;3.40;;;2.25;;
38053;SDS011;23859;50.672;7.164;2022-12-22T08:46:48;2.50;;;2.17;;
38053;SDS011;23859;50.672;7.164;2022-12-22T08:49:15;3.10;;;2.50;;
38053;SDS011;23859;50.672;7.164;2022-12-22T08:51:41;3.75;;;2.95;;
38053;SDS011;23859;50.672;7.164;2022-12-22T08:54:11;4.93;;;3.60;;
38053;SDS011;23859;50.672;7.164;2022-12-22T08:56:37;4.68;;;3.13;;
38053;SDS011;23859;50.672;7.164;2022-12-22T08:59:05;5.93;;;4.05;;
38053;SDS011;23859;50.672;7.164;2022-12-22T09:01:33;5.90;;;4.35;;
38053;SDS011;23859;50.672;7.164;2022-12-22T09:04:01;10.38;;;5.53;;
38053;SDS011;23859;50.672;7.164;2022-12-22T09:06:28;8.52;;;5.43;;
38053;SDS011;23859;50.672;7.164;2022-12-22T09:08:55;10.38;;;5.32;;
38053;SDS011;23859;50.672;7.164;2022-12-22T09:11:23;8.30;;;5.75;;
38053;SDS011;23859;50.672;7.164;2022-12-22T09:13:51;10.45;;;5.95;;
38053;SDS011;23859;50.672;7.164;2022-12-22T09:16:18;12.10;;;5.85;;
38053;SDS011;23859;50.672;7.164;2022-12-22T09:18:45;13.85;;;6.47;;
38053;SDS011;23859;50.672;7.164;2022-12-22T09:21:15;9.30;;;5.93;;
38053;SDS011;23859;50.672;7.164;2022-12-22T09:23:41;6.65;;;5.20;;
38053;SDS011;23859;50.672;7.164;2022-12-22T09:26:08;9.02;;;5.82;;
38053;SDS011;23859;50.672;7.164;2022-12-22T09:28:36;11.90;;;7.00;;
38053;SDS011;23859;50.672;7.164;2022-12-22T09:31:02;16.60;;;8.95;;
38053;SDS011;23859;50.672;7.164;2022-12-22T09:33:29;18.00;;;8.43;;
38053;SDS011;23859;50.672;7.164;2022-12-22T09:35:56;18.48;;;9.80;;
38053;SDS011;23859;50.672;7.164;2022-12-22T09:38:26;18.52;;;10.00;;
38053;SDS011;23859;50.672;7.164;2022-12-22T09:40:54;17.75;;;10.27;;
38053;SDS011;23859;50.672;7.164;2022-12-22T09:43:26;18.10;;;10.43;;
38053;SDS011;23859;50.672;7.164;2022-12-22T09:45:54;20.48;;;11.65;;
38053;SDS011;23859;50.672;7.164;2022-12-22T09:48:24;19.67;;;10.70;;
38053;SDS011;23859;50.672;7.164;2022-12-22T09:50:57;24.52;;;13.35;;
38053;SDS011;23859;50.672;7.164;2022-12-22T09:53:24;23.80;;;12.93;;
38053;SDS011;23859;50.672;7.164;2022-12-22T09:55:50;31.08;;;14.80;;
38053;SDS011;23859;50.672;7.164;2022-12-22T10:00:59;27.08;;;13.07;;
38053;SDS011;23859;50.672;7.164;2022-12-22T10:06:07;29.48;;;14.75;;
38053;SDS011;23859;50.672;7.164;2022-12-22T10:09:00;32.80;;;14.80;;
38053;SDS011;23859;50.672;7.164;2022-12-22T10:11:49;30.85;;;15.38;;
38053;SDS011;23859;50.672;7.164;2022-12-22T10:14:16;35.85;;;16.85;;
38053;SDS011;23859;50.672;7.164;2022-12-22T10:16:42;41.55;;;17.00;;
38053;SDS011;23859;50.672;7.164;2022-12-22T10:19:09;33.40;;;16.00;;
38053;SDS011;23859;50.672;7.164;2022-12-22T10:21:37;29.40;;;16.23;;
38053;SDS011;23859;50.672;7.164;2022-12-22T10:24:13;28.42;;;16.02;;
38053;SDS011;23859;50.672;7.164;2022-12-22T10:26:42;29.23;;;15.68;;
38053;SDS011;23859;50.672;7.164;2022-12-22T10:29:09;29.85;;;15.40;;
38053;SDS011;23859;50.672;7.164;2022-12-22T10:31:58;27.50;;;14.48;;
38053;SDS011;23859;50.672;7.164;2022-12-22T10:34:25;28.33;;;14.52;;
38053;SDS011;23859;50.672;7.164;2022-12-22T10:36:52;25.02;;;13.68;;
38053;SDS011;23859;50.672;7.164;2022-12-22T10:39:23;25.10;;;13.85;;
38053;SDS011;23859;50.672;7.164;2022-12-22T10:41:59;23.88;;;12.38;;
38053;SDS011;23859;50.672;7.164;2022-12-22T10:44:31;23.58;;;12.18;;
38053;SDS011;23859;50.672;7.164;2022-12-22T10:47:09;21.63;;;11.90;;
38053;SDS011;23859;50.672;7.164;2022-12-22T10:49:39;19.77;;;11.23;;
38053;SDS011;23859;50.672;7.164;2022-12-22T10:52:25;16.70;;;10.02;;
38053;SDS011;23859;50.672;7.164;2022-12-22T10:55:12;19.00;;;10.88;;
38053;SDS011;23859;50.672;7.164;2022-12-22T10:57:43;19.73;;;10.82;;
38053;SDS011;23859;50.672;7.164;2022-12-22T11:00:31;20.02;;;10.80;;
38053;SDS011;23859;50.672;7.164;2022-12-22T11:02:57;19.00;;;11.32;;
38053;SDS011;23859;50.672;7.164;2022-12-22T11:05:24;21.13;;;11.27;;
38053;SDS011;23859;50.672;7.164;2022-12-22T11:07:51;17.90;;;10.30;;
38053;SDS011;23859;50.672;7.164;2022-12-22T11:10:25;19.48;;;11.65;;
38053;SDS011;23859;50.672;7.164;2022-12-22T11:16:09;20.33;;;11.75;;
38053;SDS011;23859;50.672;7.164;2022-12-22T11:18:49;24.67;;;11.48;;
38053;SDS011;23859;50.672;7.164;2022-12-22T11:22:03;18.60;;;11.70;;
38053;SDS011;23859;50.672;7.164;2022-12-22T11:27:27;17.27;;;11.27;;
38053;SDS011;23859;50.672;7.164;2022-12-22T11:32:52;20.55;;;12.18;;
38053;SDS011;23859;50.672;7.164;2022-12-22T11:38:24;21.67;;;12.82;;
38053;SDS011;23859;50.672;7.164;2022-12-22T11:40:54;26.38;;;12.25;;
38053;SDS011;23859;50.672;7.164;2022-12-22T11:49:35;27.20;;;12.50;;
38053;SDS011;23859;50.672;7.164;2022-12-22T11:55:06;17.92;;;10.18;;
38053;SDS011;23859;50.672;7.164;2022-12-22T12:00:39;26.42;;;12.65;;
38053;SDS011;23859;50.672;7.164;2022-12-22T12:03:17;21.75;;;11.63;;
38053;SDS011;23859;50.672;7.164;2022-12-22T12:08:38;16.10;;;9.55;;
38053;SDS011;23859;50.672;7.164;2022-12-22T12:22:29;14.80;;;8.57;;
38053;SDS011;23859;50.672;7.164;2022-12-22T12:28:01;14.38;;;8.35;;
38053;SDS011;23859;50.672;7.164;2022-12-22T12:30:57;13.63;;;8.07;;
38053;SDS011;23859;50.672;7.164;2022-12-22T12:41:58;11.85;;;6.93;;
38053;SDS011;23859;50.672;7.164;2022-12-22T12:44:41;11.45;;;6.50;;
38053;SDS011;23859;50.672;7.164;2022-12-22T12:47:25;11.55;;;6.80;;
38053;SDS011;23859;50.672;7.164;2022-12-22T12:49:56;12.18;;;6.93;;
38053;SDS011;23859;50.672;7.164;2022-12-22T12:55:21;14.10;;;8.18;;
38053;SDS011;23859;50.672;7.164;2022-12-22T12:57:54;12.27;;;7.50;;
38053;SDS011;23859;50.672;7.164;2022-12-22T13:03:42;11.40;;;7.28;;
38053;SDS011;23859;50.672;7.164;2022-12-22T13:06:00;10.57;;;7.30;;
38053;SDS011;23859;50.672;7.164;2022-12-22T13:08:31;11.30;;;7.05;;
38053;SDS011;23859;50.672;7.164;2022-12-22T13:11:28;9.73;;;6.93;;
38053;SDS011;23859;50.672;7.164;2022-12-22T13:13:59;13.70;;;7.28;;
38053;SDS011;23859;50.672;7.164;2022-12-22T13:16:27;11.43;;;7.40;;
38053;SDS011;23859;50.672;7.164;2022-12-22T13:18:55;14.55;;;7.30;;
38053;SDS011;23859;50.672;7.164;2022-12-22T13:21:24;11.77;;;5.88;;
38053;SDS011;23859;50.672;7.164;2022-12-22T13:26:21;10.95;;;5.88;;
38053;SDS011;23859;50.672;7.164;2022-12-22T13:29:00;9.57;;;5.85;;
38053;SDS011;23859;50.672;7.164;2022-12-22T13:31:40;11.45;;;6.68;;
38053;SDS011;23859;50.672;7.164;2022-12-22T13:36:38;12.55;;;7.13;;
38053;SDS011;23859;50.672;7.164;2022-12-22T13:39:05;15.38;;;7.43;;
38053;SDS011;23859;50.672;7.164;2022-12-22T13:41:38;11.48;;;7.00;;
38053;SDS011;23859;50.672;7.164;2022-12-22T13:44:19;15.45;;;8.18;;
38053;SDS011;23859;50.672;7.164;2022-12-22T13:46:53;9.32;;;6.45;;
38053;SDS011;23859;50.672;7.164;2022-12-22T13:49:26;12.65;;;7.18;;
38053;SDS011;23859;50.672;7.164;2022-12-22T13:51:54;10.48;;;6.80;;
38053;SDS011;23859;50.672;7.164;2022-12-22T13:54:28;10.93;;;6.45;;
38053;SDS011;23859;50.672;7.164;2022-12-22T13:56:57;9.88;;;6.45;;
38053;SDS011;23859;50.672;7.164;2022-12-22T13:59:29;9.85;;;6.30;;
38053;SDS011;23859;50.672;7.164;2022-12-22T14:04:29;14.35;;;7.30;;
38053;SDS011;23859;50.672;7.164;2022-12-22T14:06:55;10.95;;;7.70;;
38053;SDS011;23859;50.672;7.164;2022-12-22T14:09:25;14.80;;;8.18;;
38053;SDS011;23859;50.672;7.164;2022-12-22T14:14:28;14.00;;;8.27;;
38053;SDS011;23859;50.672;7.164;2022-12-22T14:16:59;13.77;;;7.63;;
38053;SDS011;23859;50.672;7.164;2022-12-22T14:19:29;13.00;;;7.85;;
38053;SDS011;23859;50.672;7.164;2022-12-22T14:22:01;15.30;;;8.32;;
38053;SDS011;23859;50.672;7.164;2022-12-22T14:24:33;14.70;;;8.63;;
38053;SDS011;23859;50.672;7.164;2022-12-22T14:27:11;15.38;;;12.23;;
38053;SDS011;23859;50.672;7.164;2022-12-22T14:29:48;18.80;;;10.63;;
38053;SDS011;23859;50.672;7.164;2022-12-22T14:37:45;14.13;;;9.02;;
38053;SDS011;23859;50.672;7.164;2022-12-22T14:40:31;18.92;;;8.73;;
38053;SDS011;23859;50.672;7.164;2022-12-22T14:43:00;17.60;;;9.82;;
38053;SDS011;23859;50.672;7.164;2022-12-22T14:45:29;17.05;;;9.48;;
38053;SDS011;23859;50.672;7.164;2022-12-22T14:47:55;18.17;;;10.63;;
38053;SDS011;23859;50.672;7.164;2022-12-22T14:50:23;16.05;;;9.85;;
38053;SDS011;23859;50.672;7.164;2022-12-22T14:52:55;16.95;;;9.93;;
38053;SDS011;23859;50.672;7.164;2022-12-22T14:55:38;19.13;;;10.63;;
38053;SDS011;23859;50.672;7.164;2022-12-22T15:01:10;21.02;;;11.48;;
38053;SDS011;23859;50.672;7.164;2022-12-22T15:03:58;20.77;;;11.30;;
38053;SDS011;23859;50.672;7.164;2022-12-22T15:08:51;23.95;;;12.15;;
38053;SDS011;23859;50.672;7.164;2022-12-22T15:12:20;22.83;;;12.73;;
38053;SDS011;23859;50.672;7.164;2022-12-22T15:14:34;19.80;;;11.00;;
38053;SDS011;23859;50.672;7.164;2022-12-22T15:17:01;25.33;;;14.65;;
38053;SDS011;23859;50.672;7.164;2022-12-22T15:19:29;26.30;;;13.98;;
38053;SDS011;23859;50.672;7.164;2022-12-22T15:21:57;23.70;;;13.15;;
38053;SDS011;23859;50.672;7.164;2022-12-22T15:24:23;25.75;;;13.95;;
38053;SDS011;23859;50.672;7.164;2022-12-22T15:26:50;25.63;;;12.57;;
38053;SDS011;23859;50.672;7.164;2022-12-22T15:29:16;34.53;;;13.85;;
38053;SDS011;23859;50.672;7.164;2022-12-22T15:31:42;29.65;;;12.82;;
38053;SDS011;23859;50.672;7.164;2022-12-22T15:34:10;25.52;;;14.95;;
38053;SDS011;23859;50.672;7.164;2022-12-22T15:36:46;18.80;;;11.20;;
38053;SDS011;23859;50.672;7.164;2022-12-22T15:39:13;18.08;;;10.85;;
38053;SDS011;23859;50.672;7.164;2022-12-22T15:41:41;16.77;;;10.73;;
38053;SDS011;23859;50.672;7.164;2022-12-22T15:44:07;15.15;;;8.90;;
38053;SDS011;23859;50.672;7.164;2022-12-22T15:46:34;18.88;;;8.75;;
38053;SDS011;23859;50.672;7.164;2022-12-22T15:49:00;12.05;;;8.20;;
38053;SDS011;23859;50.672;7.164;2022-12-22T15:51:27;8.52;;;6.30;;
38053;SDS011;23859;50.672;7.164;2022-12-22T15:53:55;9.40;;;5.57;;
38053;SDS011;23859;50.672;7.164;2022-12-22T15:56:23;8.10;;;5.18;;
38053;SDS011;23859;50.672;7.164;2022-12-22T15:58:51;9.40;;;4.38;;
38053;SDS011;23859;50.672;7.164;2022-12-22T16:01:17;6.53;;;4.15;;
38053;SDS011;23859;50.672;7.164;2022-12-22T16:03:43;5.22;;;3.50;;
38053;SDS011;23859;50.672;7.164;2022-12-22T16:06:11;7.10;;;4.35;;
38053;SDS011;23859;50.672;7.164;2022-12-22T16:08:39;5.63;;;3.22;;
38053;SDS011;23859;50.672;7.164;2022-12-22T16:11:08;6.60;;;3.70;;
38053;SDS011;23859;50.672;7.164;2022-12-22T16:13:35;6.20;;;2.83;;
38053;SDS011;23859;50.672;7.164;2022-12-22T16:16:02;5.43;;;2.42;;
38053;SDS011;23859;50.672;7.164;2022-12-22T16:18:28;3.05;;;2.70;;
38053;SDS011;23859;50.672;7.164;2022-12-22T16:20:54;5.22;;;2.10;;
38053;SDS011;23859;50.672;7.164;2022-12-22T16:23:31;3.10;;;1.98;;
38053;SDS011;23859;50.672;7.164;2022-12-22T16:25:58;1.90;;;1.70;;
38053;SDS011;23859;50.672;7.164;2022-12-22T16:28:25;3.80;;;1.70;;
38053;SDS011;23859;50.672;7.164;2022-12-22T16:30:52;4.00;;;1.77;;
38053;SDS011;23859;50.672;7.164;2022-12-22T16:33:18;2.20;;;1.60;;
38053;SDS011;23859;50.672;7.164;2022-12-22T16:35:44;5.20;;;2.03;;
38053;SDS011;23859;50.672;7.164;2022-12-22T16:38:11;3.45;;;1.77;;
38053;SDS011;23859;50.672;7.164;2022-12-22T16:40:45;3.05;;;2.05;;
38053;SDS011;23859;50.672;7.164;2022-12-22T16:43:25;4.93;;;2.35;;
38053;SDS011;23859;50.672;7.164;2022-12-22T16:46:03;4.40;;;2.30;;
38053;SDS011;23859;50.672;7.164;2022-12-22T16:48:37;3.20;;;2.03;;
38053;SDS011;23859;50.672;7.164;2022-12-22T16:51:05;4.60;;;2.50;;
38053;SDS011;23859;50.672;7.164;2022-12-22T16:53:31;3.47;;;1.58;;